Time;durP1;ratioP1;P1;durP2;ratioP2;P2;SDS_P1;SDS_P2;PMS_P1;PMS_P2;Temp;Humidity;BMP_temperature;BMP_pressure;BME280_temperature;BME280_humidity;BME280_pressure;Samples;Min_cycle;Max_cycle;Signal;HPM_P1;HPM_P2
2021/12/10 00:01:31;;;;;;;0.17;0.17;;;5.80;99.90;;;;;;4868283;29;20184;-79
2021/12/10 00:03:59;;;;;;;0.30;0.30;;;5.90;99.90;;;;;;4877064;29;20195;-78
2021/12/10 00:06:30;;;;;;;1.33;0.30;;;5.80;99.90;;;;;;4864810;29;20212;-79
2021/12/10 00:08:59;;;;;;;0.10;0.10;;;5.70;99.90;;;;;;4868912;29;20210;-79
2021/12/10 00:11:30;;;;;;;0.97;0.30;;;5.70;99.90;;;;;;4875888;29;20415;-79
2021/12/10 00:13:57;;;;;;;0.20;0.20;;;5.70;99.90;;;;;;4875424;29;20215;-79
2021/12/10 00:16:23;;;;;;;0.10;0.10;;;5.80;99.90;;;;;;4873158;29;20255;-79
2021/12/10 00:18:56;;;;;;;0.27;0.27;;;5.70;99.90;;;;;;4870846;29;20279;-79
2021/12/10 00:21:25;;;;;;;0.10;0.10;;;5.70;99.90;;;;;;4876281;29;20276;-79
2021/12/10 00:23:54;;;;;;;0.10;0.10;;;5.70;99.90;;;;;;4876402;29;20207;-79
2021/12/10 00:26:20;;;;;;;0.17;0.17;;;5.70;99.90;;;;;;4878990;29;20243;-79
2021/12/10 00:28:47;;;;;;;0.20;0.20;;;5.70;99.90;;;;;;4874579;29;20195;-79
2021/12/10 00:31:30;;;;;;;0.40;0.20;;;5.70;99.90;;;;;;4867379;29;20284;-79
2021/12/10 00:34:09;;;;;;;0.40;0.40;;;5.80;99.90;;;;;;4873517;29;20302;-79
2021/12/10 00:36:36;;;;;;;0.40;0.40;;;5.80;99.90;;;;;;4874554;29;20790;-78
2021/12/10 00:39:09;;;;;;;2.87;0.50;;;5.80;99.90;;;;;;4874285;29;20569;-79
2021/12/10 00:41:35;;;;;;;0.23;0.23;;;5.90;99.90;;;;;;4868569;29;20188;-79
2021/12/10 00:44:01;;;;;;;0.20;0.20;;;6.00;99.90;;;;;;4877401;29;20196;-79
2021/12/10 00:46:27;;;;;;;0.20;0.20;;;5.90;99.90;;;;;;4872683;29;20220;-79
2021/12/10 00:48:53;;;;;;;0.40;0.40;;;5.90;99.90;;;;;;4873559;29;20324;-79
2021/12/10 00:51:18;;;;;;;0.40;0.40;;;5.80;99.90;;;;;;4877588;29;20221;-79
2021/12/10 00:53:44;;;;;;;0.10;0.10;;;5.60;99.90;;;;;;4875851;29;20219;-80
2021/12/10 00:56:10;;;;;;;0.40;0.40;;;5.60;99.90;;;;;;4874614;29;20744;-80
2021/12/10 00:58:39;;;;;;;0.77;0.77;;;5.60;99.90;;;;;;4874010;29;20188;-79
2021/12/10 01:01:11;;;;;;;0.27;0.23;;;5.50;99.90;;;;;;4869060;29;20283;-79
2021/12/10 01:03:45;;;;;;;0.20;0.20;;;5.50;99.90;;;;;;4870634;29;20230;-79
2021/12/10 01:06:13;;;;;;;0.10;0.10;;;5.60;99.90;;;;;;4878497;29;20203;-79
2021/12/10 01:08:43;;;;;;;0.10;0.10;;;5.60;99.90;;;;;;4877731;29;20193;-79
2021/12/10 01:11:33;;;;;;;0.20;0.20;;;5.60;99.90;;;;;;4875676;29;20188;-79
2021/12/10 01:14:11;;;;;;;0.10;0.10;;;5.60;99.90;;;;;;4872054;29;20264;-78
2021/12/10 01:27:34;;;;;;;1.00;0.60;;;5.60;99.90;;;;;;4875221;29;20223;-79
2021/12/10 01:30:07;;;;;;;2.00;1.07;;;5.60;99.90;;;;;;4867855;29;20189;-79
2021/12/10 01:32:38;;;;;;;0.03;0.03;;;5.60;99.90;;;;;;4876944;29;20189;-79
2021/12/10 01:35:06;;;;;;;0.10;0.10;;;5.70;99.90;;;;;;4871872;29;20216;-79
2021/12/10 01:37:32;;;;;;;0.73;0.20;;;5.80;99.90;;;;;;4875409;29;20212;-79
2021/12/10 01:39:57;;;;;;;0.63;0.40;;;5.80;99.90;;;;;;4873408;29;20186;-80
2021/12/10 01:42:37;;;;;;;0.30;0.30;;;5.80;99.90;;;;;;4869909;29;20224;-78
2021/12/10 01:45:16;;;;;;;0.43;0.20;;;5.90;99.90;;;;;;4878892;29;20184;-79
2021/12/10 01:47:43;;;;;;;0.10;0.10;;;5.90;99.90;;;;;;4874126;29;20219;-79
2021/12/10 01:50:09;;;;;;;2.07;1.03;;;5.90;99.90;;;;;;4880738;29;20199;-79
2021/12/10 01:52:35;;;;;;;0.13;0.13;;;5.90;99.90;;;;;;4878236;29;20192;-79
2021/12/10 01:55:03;;;;;;;0.20;0.20;;;5.80;99.90;;;;;;4875852;29;20674;-79
2021/12/10 01:57:34;;;;;;;0.13;0.13;;;5.90;99.90;;;;;;4869553;29;20224;-79
2021/12/10 02:00:01;;;;;;;1.37;0.30;;;5.90;99.90;;;;;;4872133;29;20646;-79
2021/12/10 02:02:31;;;;;;;0.10;0.10;;;5.90;99.90;;;;;;4871778;29;20628;-79
2021/12/10 02:04:57;;;;;;;0.73;0.67;;;5.90;99.90;;;;;;4873501;29;20194;-79
2021/12/10 02:07:27;;;;;;;0.67;0.53;;;5.90;99.90;;;;;;4879926;29;20713;-79
2021/12/10 02:09:53;;;;;;;0.10;0.10;;;5.90;99.90;;;;;;4877476;29;20198;-78
2021/12/10 02:12:21;;;;;;;0.20;0.20;;;5.90;99.90;;;;;;4870976;29;20570;-79
2021/12/10 02:14:57;;;;;;;0.10;0.10;;;5.80;99.90;;;;;;4868523;29;20557;-79
2021/12/10 02:17:24;;;;;;;0.20;0.20;;;5.80;99.90;;;;;;4866758;29;20276;-80
2021/12/10 02:19:49;;;;;;;0.17;0.17;;;5.80;99.90;;;;;;4873081;29;20181;-79
2021/12/10 02:22:15;;;;;;;1.60;0.40;;;5.90;99.90;;;;;;4872640;29;20786;-79
2021/12/10 02:24:41;;;;;;;0.10;0.10;;;5.90;99.90;;;;;;4878013;29;20188;-79
2021/12/10 02:27:08;;;;;;;0.10;0.10;;;5.80;99.90;;;;;;4873514;29;20685;-79
2021/12/10 02:29:37;;;;;;;0.10;0.10;;;5.80;99.90;;;;;;4874832;29;20275;-79
2021/12/10 02:32:08;;;;;;;0.10;0.10;;;5.60;99.90;;;;;;4863860;29;20195;-79
2021/12/10 02:34:34;;;;;;;0.10;0.10;;;5.50;99.90;;;;;;4875170;29;20788;-79
2021/12/10 02:36:59;;;;;;;0.00;0.00;;;5.60;99.90;;;;;;4874787;29;20235;-79
2021/12/10 02:39:27;;;;;;;0.10;0.10;;;5.60;99.90;;;;;;4874623;29;20712;-79
2021/12/10 02:41:53;;;;;;;2.27;0.23;;;5.60;99.90;;;;;;4868664;29;20293;-82
2021/12/10 02:44:23;;;;;;;0.10;0.10;;;5.60;99.90;;;;;;4877558;29;20194;-79
2021/12/10 02:46:49;;;;;;;0.00;0.00;;;5.60;99.90;;;;;;4874673;29;20291;-80
2021/12/10 02:49:16;;;;;;;0.10;0.10;;;5.50;99.90;;;;;;4869756;29;20218;-79
2021/12/10 02:51:43;;;;;;;0.00;0.00;;;5.40;99.90;;;;;;4873885;29;20239;-79
2021/12/10 02:54:11;;;;;;;0.10;0.10;;;5.40;99.90;;;;;;4870731;29;20699;-79
2021/12/10 02:56:39;;;;;;;0.17;0.17;;;5.40;99.90;;;;;;4870732;29;20572;-79
2021/12/10 02:59:06;;;;;;;2.37;0.70;;;5.30;99.90;;;;;;4873569;29;20190;-79
2021/12/10 03:01:38;;;;;;;0.10;0.10;;;5.30;99.90;;;;;;4869967;29;20697;-79
2021/12/10 03:04:07;;;;;;;0.17;0.17;;;5.20;99.90;;;;;;4872455;29;20671;-80
2021/12/10 03:06:34;;;;;;;0.10;0.10;;;5.20;99.90;;;;;;4871302;29;20208;-79
2021/12/10 03:09:00;;;;;;;0.37;0.20;;;5.20;99.90;;;;;;4873888;29;20188;-78
2021/12/10 03:11:31;;;;;;;0.10;0.10;;;5.20;99.90;;;;;;4866093;29;20207;-79
2021/12/10 03:13:58;;;;;;;0.10;0.10;;;5.20;99.90;;;;;;4868671;29;20210;-79
2021/12/10 03:16:24;;;;;;;0.30;0.30;;;5.20;99.90;;;;;;4874458;29;20631;-80
2021/12/10 03:18:50;;;;;;;0.10;0.10;;;5.30;99.90;;;;;;4875641;29;20242;-79
2021/12/10 03:21:16;;;;;;;0.00;0.00;;;5.20;99.90;;;;;;4873338;29;20667;-79
2021/12/10 03:23:45;;;;;;;0.10;0.10;;;5.20;99.90;;;;;;4872814;29;20216;-80
2021/12/10 03:26:13;;;;;;;0.10;0.10;;;5.20;99.90;;;;;;4874438;29;20251;-79
2021/12/10 03:28:42;;;;;;;0.10;0.10;;;5.20;99.90;;;;;;4866441;29;20196;-79
2021/12/10 03:31:08;;;;;;;0.20;0.20;;;5.30;99.90;;;;;;4868092;29;20187;-78
2021/12/10 03:33:35;;;;;;;0.30;0.30;;;5.30;99.90;;;;;;4876133;29;20215;-80
2021/12/10 03:36:01;;;;;;;0.10;0.10;;;5.40;99.90;;;;;;4873298;29;20210;-80
2021/12/10 03:38:28;;;;;;;0.23;0.23;;;5.50;99.90;;;;;;4876473;29;20327;-79
2021/12/10 03:40:53;;;;;;;0.60;0.47;;;5.50;99.90;;;;;;4871247;29;20193;-79
2021/12/10 03:43:20;;;;;;;0.10;0.10;;;5.50;99.90;;;;;;4866986;29;20195;-79
2021/12/10 03:45:50;;;;;;;0.10;0.10;;;5.50;99.90;;;;;;4866539;29;20243;-79
2021/12/10 03:48:21;;;;;;;0.47;0.47;;;5.40;99.90;;;;;;4869356;29;20252;-79
2021/12/10 03:50:48;;;;;;;0.30;0.17;;;5.40;99.90;;;;;;4871025;29;20195;-79
2021/12/10 03:53:15;;;;;;;0.10;0.10;;;5.40;99.90;;;;;;4870161;29;20635;-79
2021/12/10 03:55:41;;;;;;;0.00;0.00;;;5.30;99.90;;;;;;4871819;29;20194;-79
2021/12/10 03:58:07;;;;;;;0.10;0.10;;;5.30;99.90;;;;;;4876420;29;20215;-79
2021/12/10 04:00:38;;;;;;;0.10;0.10;;;5.30;99.90;;;;;;4873533;29;20192;-79
2021/12/10 04:03:04;;;;;;;0.30;0.30;;;5.20;99.90;;;;;;4876752;29;20246;-79
2021/12/10 04:05:30;;;;;;;0.20;0.20;;;5.10;99.90;;;;;;4868568;29;20259;-79
2021/12/10 04:07:56;;;;;;;0.10;0.10;;;4.90;99.90;;;;;;4873567;29;20187;-80
2021/12/10 04:10:22;;;;;;;0.10;0.10;;;4.80;99.90;;;;;;4875239;29;20227;-80
2021/12/10 04:12:48;;;;;;;0.83;0.63;;;4.70;99.90;;;;;;4870716;29;20184;-79
2021/12/10 04:15:22;;;;;;;0.17;0.17;;;4.70;99.90;;;;;;4874162;29;20744;-79
2021/12/10 04:17:49;;;;;;;1.03;1.03;;;4.50;99.90;;;;;;4876967;29;20657;-79
2021/12/10 04:20:19;;;;;;;0.23;0.23;;;4.40;99.90;;;;;;4865786;29;20262;-79
2021/12/10 04:22:46;;;;;;;0.10;0.10;;;4.30;99.90;;;;;;4869690;29;20241;-79
2021/12/10 04:25:13;;;;;;;2.23;1.00;;;4.20;99.90;;;;;;4875269;29;20197;-79
2021/12/10 04:27:39;;;;;;;0.10;0.10;;;4.10;99.90;;;;;;4878408;29;20207;-80
2021/12/10 04:30:06;;;;;;;0.10;0.10;;;4.00;99.90;;;;;;4878479;29;20194;-79
2021/12/10 04:32:32;;;;;;;0.20;0.20;;;3.90;99.90;;;;;;4868152;29;20186;-79
2021/12/10 04:34:58;;;;;;;0.00;0.00;;;3.80;99.90;;;;;;4871609;29;20585;-79
2021/12/10 04:37:23;;;;;;;0.10;0.10;;;3.70;99.90;;;;;;4867807;29;20299;-80
2021/12/10 04:39:49;;;;;;;0.43;0.43;;;3.70;99.90;;;;;;4876759;29;20189;-79
2021/12/10 04:42:22;;;;;;;0.10;0.10;;;3.60;99.90;;;;;;4880032;29;20199;-79
2021/12/10 04:44:51;;;;;;;0.20;0.20;;;3.50;99.90;;;;;;4872792;29;20190;-79
2021/12/10 04:47:16;;;;;;;1.13;0.40;;;3.50;99.90;;;;;;4880284;29;20211;-79
2021/12/10 04:49:42;;;;;;;0.50;0.50;;;3.50;99.90;;;;;;4872964;29;20202;-80
2021/12/10 04:52:08;;;;;;;0.60;0.53;;;3.40;99.90;;;;;;4870735;29;20207;-79
2021/12/10 04:54:34;;;;;;;0.77;0.70;;;3.40;99.90;;;;;;4874761;29;20247;-79
2021/12/10 04:57:00;;;;;;;0.77;0.53;;;3.40;99.90;;;;;;4878534;29;20241;-80
2021/12/10 04:59:29;;;;;;;2.90;0.50;;;3.30;99.90;;;;;;4873654;29;20226;-79
2021/12/10 05:01:56;;;;;;;1.00;1.00;;;3.20;99.90;;;;;;4873338;29;20187;-79
2021/12/10 05:04:24;;;;;;;0.20;0.17;;;3.20;99.90;;;;;;4874322;29;20199;-79
2021/12/10 05:06:50;;;;;;;0.20;0.20;;;3.10;99.90;;;;;;4870508;29;20212;-79
2021/12/10 05:09:16;;;;;;;1.10;1.00;;;3.00;99.90;;;;;;4871389;29;20254;-79
2021/12/10 05:11:42;;;;;;;0.20;0.20;;;2.70;99.90;;;;;;4875071;29;20230;-79
2021/12/10 05:14:09;;;;;;;0.23;0.23;;;2.70;99.90;;;;;;4875886;29;20227;-79
2021/12/10 05:16:41;;;;;;;0.27;0.27;;;2.60;99.90;;;;;;4867984;29;20224;-79
2021/12/10 05:19:06;;;;;;;0.10;0.10;;;2.60;99.90;;;;;;4875256;29;20186;-79
2021/12/10 05:21:34;;;;;;;3.10;0.60;;;2.60;99.90;;;;;;4873116;29;20715;-79
2021/12/10 05:24:04;;;;;;;0.20;0.20;;;2.50;99.90;;;;;;4874340;29;20264;-79
2021/12/10 05:26:30;;;;;;;0.23;0.23;;;2.40;99.90;;;;;;4864289;29;20278;-79
2021/12/10 05:28:55;;;;;;;0.10;0.10;;;2.30;99.90;;;;;;4872694;29;20634;-79
2021/12/10 05:31:22;;;;;;;0.53;0.53;;;2.10;99.90;;;;;;4871443;29;20196;-80
2021/12/10 05:33:48;;;;;;;0.10;0.10;;;1.90;99.90;;;;;;4873228;29;20215;-80
2021/12/10 05:36:16;;;;;;;0.70;0.27;;;1.90;99.90;;;;;;4871897;29;20205;-79
2021/12/10 05:38:42;;;;;;;0.40;0.40;;;1.80;99.90;;;;;;4874339;29;20344;-80
2021/12/10 05:41:10;;;;;;;0.20;0.20;;;1.70;99.90;;;;;;4875695;29;20287;-79
2021/12/10 05:43:37;;;;;;;0.10;0.10;;;1.60;99.90;;;;;;4869318;29;20249;-78
2021/12/10 05:46:03;;;;;;;0.20;0.20;;;1.50;99.90;;;;;;4874115;29;20218;-79
2021/12/10 05:48:28;;;;;;;0.40;0.20;;;1.40;99.90;;;;;;4866577;29;20196;-79
2021/12/10 05:50:54;;;;;;;0.10;0.10;;;1.50;99.90;;;;;;4876932;29;20276;-81
2021/12/10 05:53:20;;;;;;;0.10;0.10;;;1.50;99.90;;;;;;4890444;29;20193;-80
2021/12/10 05:55:46;;;;;;;0.23;0.23;;;1.40;99.90;;;;;;4868482;29;20212;-81
2021/12/10 05:58:13;;;;;;;0.17;0.17;;;1.50;99.90;;;;;;4887145;29;20195;-81
2021/12/10 06:00:46;;;;;;;0.43;0.43;;;1.40;99.90;;;;;;4870725;29;20193;-81
2021/12/10 06:03:12;;;;;;;0.67;0.40;;;1.30;99.90;;;;;;4870422;29;20192;-82
2021/12/10 06:05:43;;;;;;;0.10;0.10;;;1.30;99.90;;;;;;4874110;29;20188;-82
2021/12/10 06:08:10;;;;;;;0.10;0.10;;;1.30;99.90;;;;;;4869571;29;20260;-82
2021/12/10 06:10:37;;;;;;;0.10;0.10;;;1.30;99.90;;;;;;4872353;29;20689;-80
2021/12/10 06:13:03;;;;;;;0.20;0.20;;;1.30;99.90;;;;;;4875594;29;20189;-80
2021/12/10 06:15:29;;;;;;;0.20;0.20;;;1.40;99.90;;;;;;4877080;29;20212;-81
2021/12/10 06:17:55;;;;;;;0.20;0.20;;;1.30;99.90;;;;;;4875696;29;20267;-80
2021/12/10 06:20:25;;;;;;;0.00;0.00;;;1.30;99.90;;;;;;4877107;29;20537;-80
2021/12/10 06:22:52;;;;;;;0.43;0.40;;;1.30;99.90;;;;;;4876281;29;20650;-80
2021/12/10 06:25:18;;;;;;;0.27;0.20;;;1.30;99.90;;;;;;4868044;29;20204;-80
2021/12/10 06:27:44;;;;;;;0.10;0.10;;;1.20;99.90;;;;;;4876656;29;20212;-79
2021/12/10 06:30:32;;;;;;;0.13;0.13;;;1.30;99.90;;;;;;4869999;29;20194;-80
2021/12/10 06:32:59;;;;;;;0.40;0.20;;;1.30;99.90;;;;;;4875704;29;20203;-80
2021/12/10 06:35:27;;;;;;;1.43;1.33;;;1.30;99.90;;;;;;4872466;29;20215;-80
2021/12/10 06:37:53;;;;;;;0.10;0.10;;;1.20;99.90;;;;;;4870342;29;20180;-80
2021/12/10 06:40:23;;;;;;;0.20;0.20;;;1.20;99.90;;;;;;4876054;29;20236;-80
2021/12/10 06:42:50;;;;;;;0.10;0.10;;;1.20;99.90;;;;;;4872531;29;20189;-80
2021/12/10 06:45:19;;;;;;;0.13;0.13;;;1.20;99.90;;;;;;4874716;29;20295;-80
2021/12/10 06:47:48;;;;;;;0.30;0.30;;;1.20;99.90;;;;;;4876398;29;20220;-80
2021/12/10 06:50:18;;;;;;;0.20;0.20;;;1.30;99.90;;;;;;4876391;29;20718;-80
2021/12/10 06:52:45;;;;;;;0.17;0.17;;;1.30;99.90;;;;;;4892300;29;20280;-80
2021/12/10 06:55:12;;;;;;;0.57;0.40;;;1.30;99.90;;;;;;4883399;29;20209;-80
2021/12/10 06:57:37;;;;;;;0.10;0.10;;;1.30;99.90;;;;;;4878776;29;20253;-80
2021/12/10 07:00:14;;;;;;;0.10;0.10;;;1.30;99.90;;;;;;4869460;29;20268;-80
2021/12/10 07:02:40;;;;;;;0.10;0.10;;;1.30;99.90;;;;;;4888928;29;20188;-81
2021/12/10 07:05:05;;;;;;;0.10;0.10;;;1.20;99.90;;;;;;4874954;29;20286;-81
2021/12/10 07:07:32;;;;;;;0.10;0.10;;;1.30;99.90;;;;;;4876804;29;20272;-81
2021/12/10 07:09:59;;;;;;;0.13;0.13;;;1.30;99.90;;;;;;4871793;29;20197;-81
2021/12/10 07:12:25;;;;;;;0.30;0.30;;;1.40;99.90;;;;;;4872023;29;20191;-80
2021/12/10 07:14:51;;;;;;;0.17;0.17;;;1.40;99.90;;;;;;4874324;29;20586;-80
2021/12/10 07:17:17;;;;;;;4.43;1.90;;;1.40;99.90;;;;;;4869849;29;20228;-81
2021/12/10 07:19:43;;;;;;;0.17;0.17;;;1.30;99.90;;;;;;4874626;29;20292;-80
2021/12/10 07:22:09;;;;;;;0.30;0.30;;;1.40;99.90;;;;;;4878221;29;20187;-81
2021/12/10 07:24:34;;;;;;;0.13;0.13;;;1.40;99.90;;;;;;4871618;29;20208;-81
2021/12/10 07:27:01;;;;;;;0.00;0.00;;;1.40;99.90;;;;;;4871305;29;20263;-80
2021/12/10 07:29:27;;;;;;;0.20;0.20;;;1.50;99.90;;;;;;4872390;29;20651;-81
2021/12/10 07:31:53;;;;;;;0.10;0.10;;;1.60;99.90;;;;;;4871719;29;20189;-80
2021/12/10 07:34:19;;;;;;;0.10;0.10;;;1.70;99.90;;;;;;4873859;29;20207;-80
2021/12/10 07:36:44;;;;;;;1.50;1.40;;;1.70;99.90;;;;;;4872490;29;20595;-80
2021/12/10 07:39:10;;;;;;;0.30;0.30;;;1.90;99.90;;;;;;4872799;29;20193;-81
2021/12/10 07:41:40;;;;;;;0.77;0.20;;;1.90;99.90;;;;;;4872301;29;20363;-80
2021/12/10 07:44:07;;;;;;;0.20;0.20;;;1.80;99.90;;;;;;4869005;29;20197;-81
2021/12/10 07:46:34;;;;;;;0.30;0.30;;;1.80;99.90;;;;;;4869695;29;20208;-80
2021/12/10 07:49:00;;;;;;;0.10;0.10;;;1.80;99.90;;;;;;4879077;29;20654;-81
2021/12/10 07:51:29;;;;;;;1.13;1.13;;;1.80;99.90;;;;;;4873498;29;20210;-79
2021/12/10 07:53:57;;;;;;;0.30;0.30;;;1.70;99.90;;;;;;4870141;29;20216;-80
2021/12/10 07:56:25;;;;;;;0.27;0.27;;;1.60;99.90;;;;;;4880658;29;20214;-80
2021/12/10 07:58:51;;;;;;;0.60;0.60;;;1.80;99.90;;;;;;4872497;29;20284;-79
2021/12/10 08:01:21;;;;;;;0.20;0.20;;;1.80;99.90;;;;;;4873991;29;20600;-82
2021/12/10 08:03:47;;;;;;;0.10;0.10;;;1.70;99.90;;;;;;4878030;29;20188;-82
2021/12/10 08:06:15;;;;;;;0.13;0.13;;;1.70;99.90;;;;;;4877845;29;20695;-82
2021/12/10 08:08:40;;;;;;;0.50;0.50;;;1.70;99.90;;;;;;4874177;29;20181;-82
2021/12/10 08:11:06;;;;;;;0.10;0.10;;;1.80;99.90;;;;;;4877807;29;20287;-82
2021/12/10 08:13:32;;;;;;;0.70;0.67;;;1.80;99.90;;;;;;4874457;29;20654;-83
2021/12/10 08:15:58;;;;;;;0.30;0.20;;;2.00;99.90;;;;;;4874280;29;20575;-83
2021/12/10 08:18:24;;;;;;;0.30;0.30;;;2.20;99.90;;;;;;4873444;29;20196;-82
2021/12/10 08:20:49;;;;;;;0.53;0.30;;;2.40;99.90;;;;;;4875877;29;20678;-82
2021/12/10 08:23:15;;;;;;;0.10;0.10;;;2.30;99.90;;;;;;4876075;29;20622;-82
2021/12/10 08:25:41;;;;;;;0.10;0.10;;;2.30;99.90;;;;;;4880326;29;20214;-83
2021/12/10 08:28:07;;;;;;;0.20;0.20;;;2.30;99.90;;;;;;4870929;29;20222;-81
2021/12/10 08:30:35;;;;;;;0.10;0.10;;;2.50;99.90;;;;;;4876426;29;20190;-82
2021/12/10 08:33:01;;;;;;;0.43;0.43;;;2.50;99.90;;;;;;4876850;29;20791;-83
2021/12/10 08:35:30;;;;;;;0.07;0.07;;;2.70;99.90;;;;;;4873346;29;20223;-82
2021/12/10 08:38:00;;;;;;;3.00;1.23;;;2.80;99.90;;;;;;4875976;29;20262;-82
2021/12/10 08:40:34;;;;;;;0.43;0.43;;;2.80;99.90;;;;;;4871589;29;20219;-82
2021/12/10 08:43:01;;;;;;;0.90;0.33;;;2.70;99.90;;;;;;4868721;29;21509;-83
2021/12/10 08:45:27;;;;;;;0.27;0.27;;;2.80;99.90;;;;;;4861215;29;20351;-83
2021/12/10 08:47:53;;;;;;;0.10;0.10;;;2.90;99.90;;;;;;4871856;29;20574;-84
2021/12/10 08:50:23;;;;;;;0.47;0.40;;;3.20;99.90;;;;;;4871914;29;20281;-82
2021/12/10 08:52:56;;;;;;;0.10;0.10;;;3.50;99.90;;;;;;4871781;29;20206;-83
2021/12/10 08:55:24;;;;;;;0.30;0.20;;;3.80;99.90;;;;;;4876173;29;21219;-83
2021/12/10 08:57:50;;;;;;;0.00;0.00;;;4.00;99.90;;;;;;4877296;29;20202;-84
2021/12/10 09:00:18;;;;;;;0.13;0.13;;;4.20;99.90;;;;;;4876196;29;20194;-83
2021/12/10 09:02:43;;;;;;;0.00;0.00;;;4.40;99.90;;;;;;4876890;29;20287;-81
2021/12/10 09:05:11;;;;;;;0.10;0.10;;;4.50;99.90;;;;;;4874394;29;20291;-81
2021/12/10 09:07:38;;;;;;;0.30;0.30;;;4.50;99.90;;;;;;4875103;29;20342;-81
2021/12/10 09:10:08;;;;;;;0.20;0.20;;;4.40;99.90;;;;;;4875977;29;20195;-85
2021/12/10 09:12:35;;;;;;;0.13;0.13;;;4.30;99.90;;;;;;4877436;29;20220;-80
2021/12/10 09:15:02;;;;;;;0.10;0.10;;;4.20;99.90;;;;;;4878555;29;20215;-80
2021/12/10 09:17:30;;;;;;;0.20;0.20;;;4.20;99.90;;;;;;4876826;29;20301;-81
2021/12/10 09:19:59;;;;;;;0.17;0.17;;;4.10;99.90;;;;;;4881388;29;20184;-80
2021/12/10 09:22:25;;;;;;;0.17;0.17;;;3.60;99.90;;;;;;4879031;29;20191;-81
2021/12/10 09:24:54;;;;;;;0.27;0.27;;;3.20;99.90;;;;;;4883773;29;20192;-80
2021/12/10 09:27:20;;;;;;;0.50;0.50;;;3.00;99.90;;;;;;4880852;29;20294;-81
2021/12/10 09:29:49;;;;;;;0.60;0.60;;;3.00;99.90;;;;;;4880082;29;20196;-81
2021/12/10 09:32:17;;;;;;;0.10;0.10;;;2.90;99.90;;;;;;4879702;29;20210;-81
2021/12/10 09:34:44;;;;;;;0.10;0.10;;;3.00;99.90;;;;;;4876329;29;20605;-80
2021/12/10 09:37:10;;;;;;;0.20;0.20;;;2.90;99.90;;;;;;4881970;29;20219;-80
2021/12/10 09:39:36;;;;;;;0.10;0.10;;;3.10;99.90;;;;;;4879989;29;20192;-81
2021/12/10 09:42:03;;;;;;;0.20;0.20;;;3.30;99.90;;;;;;4880133;29;20195;-81
2021/12/10 09:44:29;;;;;;;0.10;0.10;;;3.30;99.90;;;;;;4877530;29;20650;-81
2021/12/10 09:46:57;;;;;;;0.20;0.20;;;3.10;99.90;;;;;;4875086;29;20301;-81
2021/12/10 09:49:24;;;;;;;0.10;0.10;;;2.90;99.90;;;;;;4877104;29;20333;-83
2021/12/10 09:51:55;;;;;;;0.10;0.10;;;2.80;99.90;;;;;;4878776;29;20189;-84
2021/12/10 09:54:24;;;;;;;0.20;0.20;;;2.90;99.90;;;;;;4880937;29;20221;-84
2021/12/10 09:57:01;;;;;;;0.30;0.30;;;2.80;99.90;;;;;;4876594;29;20214;-83
2021/12/10 09:59:32;;;;;;;2.37;1.50;;;2.80;99.90;;;;;;4882013;29;20184;-83
2021/12/10 10:01:59;;;;;;;0.40;0.40;;;2.90;99.90;;;;;;4867676;29;20185;-82
2021/12/10 10:04:27;;;;;;;0.13;0.13;;;2.90;99.90;;;;;;4876922;29;20194;-83
2021/12/10 10:06:59;;;;;;;0.20;0.20;;;3.00;99.90;;;;;;4876301;29;20208;-83
2021/12/10 10:09:26;;;;;;;0.00;0.00;;;3.10;99.90;;;;;;4875797;29;20675;-84
2021/12/10 10:12:01;;;;;;;0.30;0.30;;;3.00;99.90;;;;;;4875777;29;20223;-83
2021/12/10 10:14:27;;;;;;;0.20;0.20;;;2.90;99.90;;;;;;4870382;29;20245;-82
2021/12/10 10:16:54;;;;;;;0.10;0.10;;;2.80;99.90;;;;;;4873523;29;20221;-82
2021/12/10 10:19:20;;;;;;;0.30;0.30;;;2.90;99.90;;;;;;4889120;29;20197;-81
2021/12/10 10:21:51;;;;;;;0.20;0.20;;;3.10;99.90;;;;;;4876468;29;20193;-82
2021/12/10 10:24:18;;;;;;;0.77;0.30;;;3.30;99.90;;;;;;4873771;29;20189;-84
2021/12/10 10:26:49;;;;;;;0.10;0.10;;;3.30;99.90;;;;;;4874483;29;20223;-83
2021/12/10 10:29:18;;;;;;;0.20;0.20;;;3.50;99.90;;;;;;4878856;29;20193;-83
2021/12/10 10:31:56;;;;;;;0.50;0.50;;;3.40;99.90;;;;;;4887209;29;21052;-83
2021/12/10 10:34:23;;;;;;;0.47;0.30;;;3.40;99.90;;;;;;4873960;29;20212;-83
2021/12/10 10:36:49;;;;;;;0.10;0.10;;;3.50;99.90;;;;;;4877342;29;20304;-83
2021/12/10 10:39:19;;;;;;;0.03;0.03;;;3.50;99.90;;;;;;4874330;29;20208;-83
2021/12/10 10:41:50;;;;;;;0.07;0.07;;;3.80;99.90;;;;;;4880851;29;20186;-82
2021/12/10 10:44:18;;;;;;;0.10;0.10;;;4.00;99.90;;;;;;4874183;29;20195;-81
2021/12/10 10:46:45;;;;;;;0.10;0.10;;;3.80;99.90;;;;;;4877044;29;20216;-81
2021/12/10 10:49:33;;;;;;;0.10;0.10;;;3.80;99.90;;;;;;4879845;29;20185;-80
2021/12/10 10:52:20;;;;;;;0.30;0.30;;;3.80;99.90;;;;;;4877418;29;21633;-81
2021/12/10 10:54:48;;;;;;;0.10;0.10;;;4.00;99.90;;;;;;4891009;29;20216;-81
2021/12/10 10:57:24;;;;;;;0.10;0.10;;;4.10;99.90;;;;;;4876202;29;20221;-81
2021/12/10 10:59:56;;;;;;;0.13;0.13;;;4.10;99.90;;;;;;4880489;29;20529;-81
2021/12/10 11:02:22;;;;;;;0.20;0.20;;;3.70;99.90;;;;;;4879638;29;20284;-81
2021/12/10 11:04:52;;;;;;;0.30;0.13;;;3.80;99.90;;;;;;4876754;29;20595;-81
2021/12/10 11:07:22;;;;;;;0.10;0.10;;;3.90;99.90;;;;;;4882515;29;20225;-80
2021/12/10 11:09:59;;;;;;;0.10;0.10;;;4.20;99.90;;;;;;4877749;29;20222;-81
2021/12/10 11:12:33;;;;;;;2.43;0.23;;;4.10;99.90;;;;;;4873336;29;20628;-82
2021/12/10 11:15:05;;;;;;;0.10;0.10;;;4.30;99.90;;;;;;4875226;29;20215;-80
2021/12/10 11:17:34;;;;;;;0.10;0.10;;;4.60;99.90;;;;;;4888373;29;20218;-81
2021/12/10 11:20:07;;;;;;;0.27;0.27;;;4.80;99.90;;;;;;4871206;29;20181;-81
2021/12/10 11:22:34;;;;;;;0.90;0.40;;;4.90;99.90;;;;;;4875334;29;20201;-81
2021/12/10 11:25:05;;;;;;;0.43;0.43;;;4.30;99.90;;;;;;4887107;29;20254;-81
2021/12/10 11:27:37;;;;;;;0.23;0.23;;;4.60;99.90;;;;;;4874321;29;20218;-81
2021/12/10 11:30:03;;;;;;;0.10;0.10;;;4.80;99.90;;;;;;4876827;29;20190;-81
2021/12/10 11:32:28;;;;;;;0.43;0.30;;;5.00;99.90;;;;;;4878543;29;20657;-81
2021/12/10 11:35:05;;;;;;;0.20;0.20;;;5.20;99.90;;;;;;4878363;29;21195;-81
2021/12/10 11:37:55;;;;;;;0.10;0.10;;;5.30;99.90;;;;;;4874221;29;20233;-81
2021/12/10 11:40:47;;;;;;;0.20;0.20;;;5.30;99.90;;;;;;4875967;29;20180;-81
2021/12/10 11:43:44;;;;;;;0.23;0.23;;;5.50;99.90;;;;;;4873437;29;20670;-82
2021/12/10 11:49:26;;;;;;;0.20;0.20;;;5.60;99.90;;;;;;4877818;29;20189;-82
2021/12/10 11:52:06;;;;;;;0.10;0.10;;;5.40;99.90;;;;;;4871322;29;20187;-81
2021/12/10 11:54:45;;;;;;;0.57;0.40;;;5.40;99.90;;;;;;4872290;29;20223;-81
2021/12/10 11:57:28;;;;;;;0.00;0.00;;;5.50;99.90;;;;;;4874295;29;20711;-81
2021/12/10 12:00:08;;;;;;;0.10;0.10;;;5.60;99.90;;;;;;4871218;29;20215;-81
2021/12/10 12:02:45;;;;;;;0.93;0.37;;;5.70;99.90;;;;;;4878639;29;20186;-81
2021/12/10 12:05:15;;;;;;;0.10;0.10;;;5.70;99.90;;;;;;4888601;29;20651;-80
2021/12/10 12:07:52;;;;;;;0.20;0.20;;;5.80;99.90;;;;;;4888927;29;20209;-81
2021/12/10 12:10:30;;;;;;;0.30;0.30;;;5.80;99.90;;;;;;4872550;29;20337;-81
2021/12/10 12:13:11;;;;;;;0.10;0.10;;;5.80;99.90;;;;;;4878808;29;20273;-80
2021/12/10 12:15:42;;;;;;;0.20;0.20;;;5.80;99.90;;;;;;4874663;29;20580;-81
2021/12/10 12:18:23;;;;;;;0.60;0.60;;;5.70;99.90;;;;;;4871628;29;20659;-81
2021/12/10 12:20:54;;;;;;;0.10;0.10;;;5.60;99.90;;;;;;4875372;29;20187;-80
2021/12/10 12:26:16;;;;;;;0.37;0.37;;;5.40;99.90;;;;;;4867466;29;20224;-78
2021/12/10 12:28:48;;;;;;;0.10;0.10;;;5.20;99.90;;;;;;4875649;29;20698;-80
2021/12/10 12:31:20;;;;;;;0.10;0.10;;;5.00;99.90;;;;;;4872298;29;20204;-80
2021/12/10 12:34:03;;;;;;;0.10;0.10;;;4.90;99.90;;;;;;4873039;29;20280;-80
2021/12/10 12:36:36;;;;;;;0.17;0.17;;;4.90;99.90;;;;;;4866967;29;20233;-80
2021/12/10 12:39:24;;;;;;;0.10;0.10;;;4.90;99.90;;;;;;4870329;29;20208;-80
2021/12/10 12:41:50;;;;;;;2.03;0.30;;;4.80;99.90;;;;;;4869617;29;20181;-80
2021/12/10 12:44:22;;;;;;;0.20;0.10;;;4.80;99.90;;;;;;4874780;29;20197;-80
2021/12/10 12:46:55;;;;;;;0.10;0.10;;;4.80;99.90;;;;;;4875059;29;20207;-81
2021/12/10 12:49:21;;;;;;;0.10;0.10;;;4.80;99.90;;;;;;4880884;29;20195;-81
2021/12/10 12:52:09;;;;;;;0.20;0.20;;;4.80;99.90;;;;;;4872857;29;20732;-80
2021/12/10 12:54:41;;;;;;;0.10;0.10;;;4.70;99.90;;;;;;4872441;29;20300;-80
2021/12/10 12:57:11;;;;;;;0.37;0.37;;;4.70;99.90;;;;;;4872333;29;20214;-82
2021/12/10 12:59:37;;;;;;;0.20;0.20;;;4.70;99.90;;;;;;4876817;29;20609;-79
2021/12/10 13:02:08;;;;;;;0.17;0.17;;;4.70;99.90;;;;;;4872108;29;20652;-81
2021/12/10 13:04:38;;;;;;;0.10;0.10;;;4.60;99.90;;;;;;4881173;29;20192;-81
2021/12/10 13:07:15;;;;;;;0.20;0.20;;;4.60;99.90;;;;;;4875944;29;20700;-80
2021/12/10 13:09:49;;;;;;;0.30;0.20;;;4.50;99.90;;;;;;4874232;29;20295;-80
2021/12/10 13:13:07;;;;;;;0.10;0.10;;;4.60;99.90;;;;;;4875289;29;20196;-80
2021/12/10 13:15:33;;;;;;;0.10;0.10;;;4.50;99.90;;;;;;4873480;29;20230;-81
2021/12/10 13:18:05;;;;;;;0.10;0.10;;;4.60;99.90;;;;;;4870635;29;20305;-80
2021/12/10 13:20:36;;;;;;;0.30;0.30;;;4.70;99.90;;;;;;4877102;29;20184;-80
2021/12/10 13:23:08;;;;;;;0.50;0.40;;;4.80;99.90;;;;;;4879195;29;20216;-81
2021/12/10 13:25:35;;;;;;;0.10;0.10;;;4.60;99.90;;;;;;4874192;29;20287;-80